sensor_id;sensor_type;location;lat;lon;timestamp;pressure;altitude;pressure_sealevel;temperature;humidity
72486;BME280;60509;47.308;-122.428;2023-05-25T00:02:11;100637.91;;;19.68;25.39
72486;BME280;60509;47.308;-122.428;2023-05-25T00:04:37;100640.79;;;19.51;25.08
72486;BME280;60509;47.308;-122.428;2023-05-25T00:07:03;100641.66;;;19.32;24.87
72486;BME280;60509;47.308;-122.428;2023-05-25T00:09:29;100638.70;;;19.22;24.87
72486;BME280;60509;47.308;-122.428;2023-05-25T00:11:55;100635.90;;;19.41;26.08
72486;BME280;60509;47.308;-122.428;2023-05-25T00:14:21;100631.60;;;19.17;25.95
72486;BME280;60509;47.308;-122.428;2023-05-25T00:16:46;100631.24;;;19.08;26.39
72486;BME280;60509;47.308;-122.428;2023-05-25T00:19:12;100626.26;;;19.37;25.66
72486;BME280;60509;47.308;-122.428;2023-05-25T00:21:38;100624.60;;;19.76;25.65
72486;BME280;60509;47.308;-122.428;2023-05-25T00:24:05;100622.50;;;19.69;25.69
72486;BME280;60509;47.308;-122.428;2023-05-25T00:26:30;100617.97;;;19.84;25.21
72486;BME280;60509;47.308;-122.428;2023-05-25T00:28:56;100618.10;;;19.39;25.23
72486;BME280;60509;47.308;-122.428;2023-05-25T00:31:22;100617.84;;;18.64;25.09
72486;BME280;60509;47.308;-122.428;2023-05-25T00:33:48;100612.91;;;19.35;25.20
72486;BME280;60509;47.308;-122.428;2023-05-25T00:36:14;100614.46;;;19.46;25.68
72486;BME280;60509;47.308;-122.428;2023-05-25T00:38:39;100613.64;;;19.26;25.85
72486;BME280;60509;47.308;-122.428;2023-05-25T00:41:06;100610.30;;;19.23;25.76
72486;BME280;60509;47.308;-122.428;2023-05-25T00:43:31;100604.32;;;19.26;26.18
72486;BME280;60509;47.308;-122.428;2023-05-25T00:45:57;100603.79;;;19.99;25.60
72486;BME280;60509;47.308;-122.428;2023-05-25T00:48:25;100601.98;;;19.67;25.60
72486;BME280;60509;47.308;-122.428;2023-05-25T00:50:52;100598.53;;;19.53;25.50
72486;BME280;60509;47.308;-122.428;2023-05-25T00:53:15;100593.41;;;19.09;25.27
72486;BME280;60509;47.308;-122.428;2023-05-25T00:55:43;100593.27;;;19.26;25.10
72486;BME280;60509;47.308;-122.428;2023-05-25T00:58:08;100589.40;;;19.08;24.73
72486;BME280;60509;47.308;-122.428;2023-05-25T01:00:33;100587.19;;;19.54;26.10
72486;BME280;60509;47.308;-122.428;2023-05-25T01:02:59;100584.16;;;18.93;25.98
72486;BME280;60509;47.308;-122.428;2023-05-25T01:05:25;100586.19;;;18.84;25.81
72486;BME280;60509;47.308;-122.428;2023-05-25T01:07:52;100586.51;;;19.58;25.93
72486;BME280;60509;47.308;-122.428;2023-05-25T01:10:16;100587.79;;;19.65;25.56
72486;BME280;60509;47.308;-122.428;2023-05-25T01:12:44;100584.49;;;19.42;25.64
72486;BME280;60509;47.308;-122.428;2023-05-25T01:15:09;100582.43;;;19.85;25.76
72486;BME280;60509;47.308;-122.428;2023-05-25T01:17:34;100580.38;;;19.30;25.44
72486;BME280;60509;47.308;-122.428;2023-05-25T01:20:00;100577.86;;;18.90;25.14
72486;BME280;60509;47.308;-122.428;2023-05-25T01:22:29;100577.58;;;19.69;24.54
72486;BME280;60509;47.308;-122.428;2023-05-25T01:24:54;100576.76;;;19.05;26.04
72486;BME280;60509;47.308;-122.428;2023-05-25T01:27:23;100576.47;;;18.26;26.17
72486;BME280;60509;47.308;-122.428;2023-05-25T01:29:45;100573.89;;;19.24;25.39
72486;BME280;60509;47.308;-122.428;2023-05-25T01:32:09;100575.66;;;19.44;25.57
72486;BME280;60509;47.308;-122.428;2023-05-25T01:34:35;100574.52;;;19.48;24.89
72486;BME280;60509;47.308;-122.428;2023-05-25T01:37:01;100571.44;;;18.77;25.15
72486;BME280;60509;47.308;-122.428;2023-05-25T01:39:27;100565.92;;;18.56;25.17
72486;BME280;60509;47.308;-122.428;2023-05-25T01:41:53;100562.73;;;18.13;25.22
72486;BME280;60509;47.308;-122.428;2023-05-25T01:44:19;100560.49;;;17.67;25.09
72486;BME280;60509;47.308;-122.428;2023-05-25T01:46:44;100561.32;;;17.55;24.91
72486;BME280;60509;47.308;-122.428;2023-05-25T01:49:18;100562.53;;;18.04;25.75
72486;BME280;60509;47.308;-122.428;2023-05-25T01:51:42;100562.65;;;19.06;24.88
72486;BME280;60509;47.308;-122.428;2023-05-25T01:54:07;100565.12;;;19.08;24.67
72486;BME280;60509;47.308;-122.428;2023-05-25T01:56:28;100566.15;;;19.04;24.62
72486;BME280;60509;47.308;-122.428;2023-05-25T01:58:55;100565.18;;;18.54;24.48
72486;BME280;60509;47.308;-122.428;2023-05-25T02:01:20;100565.67;;;17.92;24.67
72486;BME280;60509;47.308;-122.428;2023-05-25T02:03:47;100563.32;;;17.32;24.78
72486;BME280;60509;47.308;-122.428;2023-05-25T02:06:12;100561.74;;;17.56;24.67
72486;BME280;60509;47.308;-122.428;2023-05-25T02:08:37;100557.37;;;17.80;25.37
72486;BME280;60509;47.308;-122.428;2023-05-25T02:11:03;100556.23;;;18.73;24.76
72486;BME280;60509;47.308;-122.428;2023-05-25T02:13:29;100554.11;;;18.61;24.49
72486;BME280;60509;47.308;-122.428;2023-05-25T02:15:55;100556.23;;;18.85;24.29
72486;BME280;60509;47.308;-122.428;2023-05-25T02:18:20;100553.11;;;18.53;24.68
72486;BME280;60509;47.308;-122.428;2023-05-25T02:20:46;100551.40;;;18.04;24.43
72486;BME280;60509;47.308;-122.428;2023-05-25T02:23:12;100546.06;;;17.82;24.74
72486;BME280;60509;47.308;-122.428;2023-05-25T02:25:38;100547.11;;;17.13;24.79
72486;BME280;60509;47.308;-122.428;2023-05-25T02:28:04;100545.38;;;17.08;24.52
72486;BME280;60509;47.308;-122.428;2023-05-25T02:30:30;100545.42;;;16.64;26.02
72486;BME280;60509;47.308;-122.428;2023-05-25T02:32:56;100546.14;;;18.57;24.27
72486;BME280;60509;47.308;-122.428;2023-05-25T02:35:22;100542.82;;;18.96;24.04
72486;BME280;60509;47.308;-122.428;2023-05-25T02:37:47;100544.23;;;18.66;24.10
72486;BME280;60509;47.308;-122.428;2023-05-25T02:40:15;100542.91;;;18.56;24.35
72486;BME280;60509;47.308;-122.428;2023-05-25T02:42:39;100542.54;;;18.34;24.12
72486;BME280;60509;47.308;-122.428;2023-05-25T02:45:08;100542.79;;;17.62;24.42
72486;BME280;60509;47.308;-122.428;2023-05-25T02:47:31;100546.27;;;16.77;24.37
72486;BME280;60509;47.308;-122.428;2023-05-25T02:49:57;100543.57;;;17.37;25.41
72486;BME280;60509;47.308;-122.428;2023-05-25T02:52:23;100545.56;;;18.67;24.03
72486;BME280;60509;47.308;-122.428;2023-05-25T02:54:49;100549.59;;;18.46;24.04
72486;BME280;60509;47.308;-122.428;2023-05-25T02:57:15;100549.77;;;19.15;24.06
72486;BME280;60509;47.308;-122.428;2023-05-25T02:59:41;100550.61;;;18.75;24.24
72486;BME280;60509;47.308;-122.428;2023-05-25T03:02:06;100547.68;;;18.62;24.35
72486;BME280;60509;47.308;-122.428;2023-05-25T03:04:32;100553.82;;;17.96;24.43
72486;BME280;60509;47.308;-122.428;2023-05-25T03:06:58;100553.25;;;16.96;24.56
72486;BME280;60509;47.308;-122.428;2023-05-25T03:09:25;100554.91;;;17.36;25.37
72486;BME280;60509;47.308;-122.428;2023-05-25T03:11:50;100553.48;;;18.43;24.53
72486;BME280;60509;47.308;-122.428;2023-05-25T03:14:16;100555.68;;;18.79;24.26
72486;BME280;60509;47.308;-122.428;2023-05-25T03:16:42;100560.26;;;18.75;24.10
72486;BME280;60509;47.308;-122.428;2023-05-25T03:19:08;100559.66;;;18.71;24.13
72486;BME280;60509;47.308;-122.428;2023-05-25T03:21:34;100559.86;;;18.55;25.10
72486;BME280;60509;47.308;-122.428;2023-05-25T03:24:00;100558.15;;;18.30;24.11
72486;BME280;60509;47.308;-122.428;2023-05-25T03:26:26;100558.70;;;17.43;24.34
72486;BME280;60509;47.308;-122.428;2023-05-25T03:28:52;100560.63;;;16.64;24.48
72486;BME280;60509;47.308;-122.428;2023-05-25T03:31:18;100560.80;;;18.16;24.90
72486;BME280;60509;47.308;-122.428;2023-05-25T03:33:43;100566.67;;;18.40;24.24
72486;BME280;60509;47.308;-122.428;2023-05-25T03:36:10;100568.29;;;18.70;24.17
72486;BME280;60509;47.308;-122.428;2023-05-25T03:38:36;100569.75;;;18.99;23.93
72486;BME280;60509;47.308;-122.428;2023-05-25T03:41:01;100571.76;;;18.93;23.85
72486;BME280;60509;47.308;-122.428;2023-05-25T03:43:27;100571.59;;;19.02;23.95
72486;BME280;60509;47.308;-122.428;2023-05-25T03:45:53;100568.29;;;18.02;24.84
72486;BME280;60509;47.308;-122.428;2023-05-25T03:48:19;100571.80;;;18.00;24.25
72486;BME280;60509;47.308;-122.428;2023-05-25T03:50:45;100571.98;;;16.79;24.58
72486;BME280;60509;47.308;-122.428;2023-05-25T03:53:11;100571.95;;;16.94;25.64
72486;BME280;60509;47.308;-122.428;2023-05-25T03:55:37;100570.32;;;17.68;24.83
72486;BME280;60509;47.308;-122.428;2023-05-25T03:58:02;100568.40;;;18.60;24.24
72486;BME280;60509;47.308;-122.428;2023-05-25T04:00:29;100567.78;;;18.51;24.32
72486;BME280;60509;47.308;-122.428;2023-05-25T04:02:54;100567.93;;;18.59;24.26
72486;BME280;60509;47.308;-122.428;2023-05-25T04:05:20;100569.74;;;18.62;24.31
72486;BME280;60509;47.308;-122.428;2023-05-25T04:07:46;100572.10;;;18.58;24.44
72486;BME280;60509;47.308;-122.428;2023-05-25T04:10:12;100574.09;;;18.38;24.64
72486;BME280;60509;47.308;-122.428;2023-05-25T04:12:38;100576.68;;;18.16;24.77
72486;BME280;60509;47.308;-122.428;2023-05-25T04:15:05;100575.17;;;18.59;24.64
72486;BME280;60509;47.308;-122.428;2023-05-25T04:17:30;100575.17;;;17.72;24.96
72486;BME280;60509;47.308;-122.428;2023-05-25T04:19:56;100570.19;;;17.14;24.79
72486;BME280;60509;47.308;-122.428;2023-05-25T04:22:21;100573.88;;;16.14;26.83
72486;BME280;60509;47.308;-122.428;2023-05-25T04:24:48;100571.69;;;16.30;25.71
72486;BME280;60509;47.308;-122.428;2023-05-25T04:27:13;100574.25;;;17.98;24.74
72486;BME280;60509;47.308;-122.428;2023-05-25T04:29:39;100576.15;;;18.52;24.52
72486;BME280;60509;47.308;-122.428;2023-05-25T04:32:06;100577.44;;;18.76;24.41
72486;BME280;60509;47.308;-122.428;2023-05-25T04:34:31;100576.00;;;18.57;24.35
72486;BME280;60509;47.308;-122.428;2023-05-25T04:36:57;100574.47;;;18.61;24.49
72486;BME280;60509;47.308;-122.428;2023-05-25T04:39:23;100575.01;;;18.28;24.56
72486;BME280;60509;47.308;-122.428;2023-05-25T04:41:49;100573.35;;;18.52;24.62
72486;BME280;60509;47.308;-122.428;2023-05-25T04:44:15;100574.75;;;18.30;24.64
72486;BME280;60509;47.308;-122.428;2023-05-25T04:46:41;100576.32;;;18.00;24.69
72486;BME280;60509;47.308;-122.428;2023-05-25T04:49:07;100576.82;;;18.38;24.70
72486;BME280;60509;47.308;-122.428;2023-05-25T04:51:33;100578.73;;;18.08;24.78
72486;BME280;60509;47.308;-122.428;2023-05-25T04:53:59;100583.52;;;18.38;24.65
72486;BME280;60509;47.308;-122.428;2023-05-25T04:56:25;100583.73;;;18.48;24.82
72486;BME280;60509;47.308;-122.428;2023-05-25T04:58:51;100582.71;;;18.45;24.99
72486;BME280;60509;47.308;-122.428;2023-05-25T05:01:17;100585.78;;;18.24;25.17
72486;BME280;60509;47.308;-122.428;2023-05-25T05:03:43;100583.98;;;18.34;25.17
72486;BME280;60509;47.308;-122.428;2023-05-25T05:06:08;100582.58;;;18.66;24.77
72486;BME280;60509;47.308;-122.428;2023-05-25T05:08:34;100581.23;;;17.68;25.20
72486;BME280;60509;47.308;-122.428;2023-05-25T05:11:00;100575.89;;;17.21;25.03
72486;BME280;60509;47.308;-122.428;2023-05-25T05:13:26;100575.45;;;16.88;26.47
72486;BME280;60509;47.308;-122.428;2023-05-25T05:15:52;100575.31;;;16.18;26.43
72486;BME280;60509;47.308;-122.428;2023-05-25T05:18:18;100575.44;;;17.26;25.87
72486;BME280;60509;47.308;-122.428;2023-05-25T05:20:44;100573.24;;;17.09;26.02
72486;BME280;60509;47.308;-122.428;2023-05-25T05:23:10;100571.39;;;17.88;25.51
72486;BME280;60509;47.308;-122.428;2023-05-25T05:25:36;100573.37;;;17.69;25.64
72486;BME280;60509;47.308;-122.428;2023-05-25T05:28:02;100572.00;;;17.61;25.69
72486;BME280;60509;47.308;-122.428;2023-05-25T05:30:27;100571.96;;;17.54;25.68
72486;BME280;60509;47.308;-122.428;2023-05-25T05:32:54;100574.59;;;17.67;25.70
72486;BME280;60509;47.308;-122.428;2023-05-25T05:35:19;100574.54;;;18.54;25.12
72486;BME280;60509;47.308;-122.428;2023-05-25T05:37:45;100574.89;;;18.07;25.42
72486;BME280;60509;47.308;-122.428;2023-05-25T05:40:11;100573.30;;;17.40;25.82
72486;BME280;60509;47.308;-122.428;2023-05-25T05:42:38;100572.66;;;18.49;25.17
72486;BME280;60509;47.308;-122.428;2023-05-25T05:45:04;100570.76;;;17.59;25.82
72486;BME280;60509;47.308;-122.428;2023-05-25T05:47:29;100570.72;;;17.89;25.73
72486;BME280;60509;47.308;-122.428;2023-05-25T05:49:55;100571.28;;;18.02;25.36
72486;BME280;60509;47.308;-122.428;2023-05-25T05:52:21;100573.28;;;18.22;25.29
72486;BME280;60509;47.308;-122.428;2023-05-25T05:54:47;100564.76;;;18.08;25.43
72486;BME280;60509;47.308;-122.428;2023-05-25T05:57:13;100561.06;;;18.04;25.41
72486;BME280;60509;47.308;-122.428;2023-05-25T05:59:39;100562.38;;;18.22;25.37
72486;BME280;60509;47.308;-122.428;2023-05-25T06:02:05;100564.90;;;18.31;25.29
72486;BME280;60509;47.308;-122.428;2023-05-25T06:04:30;100564.21;;;18.05;25.55
72486;BME280;60509;47.308;-122.428;2023-05-25T06:06:57;100562.92;;;17.98;25.57
72486;BME280;60509;47.308;-122.428;2023-05-25T06:09:22;100562.66;;;17.84;25.69
72486;BME280;60509;47.308;-122.428;2023-05-25T06:11:48;100564.55;;;17.76;25.72
72486;BME280;60509;47.308;-122.428;2023-05-25T06:14:14;100564.76;;;18.01;25.57
72486;BME280;60509;47.308;-122.428;2023-05-25T06:16:40;100566.40;;;17.83;25.73
72486;BME280;60509;47.308;-122.428;2023-05-25T06:19:06;100568.24;;;17.99;25.62
72486;BME280;60509;47.308;-122.428;2023-05-25T06:21:32;100570.49;;;18.01;25.53
72486;BME280;60509;47.308;-122.428;2023-05-25T06:23:57;100570.45;;;17.95;25.66
72486;BME280;60509;47.308;-122.428;2023-05-25T06:26:24;100570.70;;;18.18;25.66
72486;BME280;60509;47.308;-122.428;2023-05-25T06:28:49;100568.54;;;18.38;25.40
72486;BME280;60509;47.308;-122.428;2023-05-25T06:31:15;100561.87;;;17.94;25.77
72486;BME280;60509;47.308;-122.428;2023-05-25T06:33:41;100559.19;;;17.88;25.57
72486;BME280;60509;47.308;-122.428;2023-05-25T06:36:08;100559.91;;;17.92;25.72
72486;BME280;60509;47.308;-122.428;2023-05-25T06:38:33;100561.44;;;17.99;25.74
72486;BME280;60509;47.308;-122.428;2023-05-25T06:40:59;100562.85;;;17.44;25.92
72486;BME280;60509;47.308;-122.428;2023-05-25T06:43:25;100561.81;;;17.93;25.76
72486;BME280;60509;47.308;-122.428;2023-05-25T06:45:51;100563.37;;;18.21;25.75
72486;BME280;60509;47.308;-122.428;2023-05-25T06:48:17;100565.63;;;17.13;26.44
72486;BME280;60509;47.308;-122.428;2023-05-25T06:50:43;100566.79;;;16.91;26.58
72486;BME280;60509;47.308;-122.428;2023-05-25T06:53:09;100565.17;;;17.72;26.06
72486;BME280;60509;47.308;-122.428;2023-05-25T06:55:35;100566.94;;;17.79;25.99
72486;BME280;60509;47.308;-122.428;2023-05-25T06:58:00;100568.10;;;17.90;25.97
72486;BME280;60509;47.308;-122.428;2023-05-25T07:00:26;100565.98;;;17.75;25.96
72486;BME280;60509;47.308;-122.428;2023-05-25T07:02:52;100562.53;;;17.68;26.03
72486;BME280;60509;47.308;-122.428;2023-05-25T07:05:18;100564.77;;;17.74;26.01
72486;BME280;60509;47.308;-122.428;2023-05-25T07:07:44;100570.97;;;17.72;26.07
72486;BME280;60509;47.308;-122.428;2023-05-25T07:10:11;100571.52;;;17.57;26.04
72486;BME280;60509;47.308;-122.428;2023-05-25T07:12:36;100565.83;;;17.58;26.14
72486;BME280;60509;47.308;-122.428;2023-05-25T07:15:02;100565.06;;;17.91;25.95
72486;BME280;60509;47.308;-122.428;2023-05-25T07:17:28;100564.02;;;17.48;26.12
72486;BME280;60509;47.308;-122.428;2023-05-25T07:19:54;100561.18;;;17.59;26.01
72486;BME280;60509;47.308;-122.428;2023-05-25T07:22:20;100560.49;;;17.56;26.09
72486;BME280;60509;47.308;-122.428;2023-05-25T07:24:46;100559.58;;;17.38;26.13
72486;BME280;60509;47.308;-122.428;2023-05-25T07:27:12;100557.84;;;17.93;26.03
72486;BME280;60509;47.308;-122.428;2023-05-25T07:29:38;100554.39;;;17.96;25.84
72486;BME280;60509;47.308;-122.428;2023-05-25T07:32:04;100557.97;;;17.64;25.96
72486;BME280;60509;47.308;-122.428;2023-05-25T07:34:30;100558.34;;;17.54;26.03
72486;BME280;60509;47.308;-122.428;2023-05-25T07:36:56;100557.33;;;17.80;26.04
72486;BME280;60509;47.308;-122.428;2023-05-25T07:39:22;100557.16;;;17.31;26.36
72486;BME280;60509;47.308;-122.428;2023-05-25T07:41:47;100556.38;;;17.58;26.08
72486;BME280;60509;47.308;-122.428;2023-05-25T07:44:13;100554.43;;;17.78;26.08
72486;BME280;60509;47.308;-122.428;2023-05-25T07:46:39;100555.28;;;16.76;26.73
72486;BME280;60509;47.308;-122.428;2023-05-25T07:49:06;100554.46;;;17.42;26.27
72486;BME280;60509;47.308;-122.428;2023-05-25T07:51:31;100549.14;;;17.71;26.02
72486;BME280;60509;47.308;-122.428;2023-05-25T07:53:57;100549.17;;;17.01;26.58
72486;BME280;60509;47.308;-122.428;2023-05-25T07:56:23;100551.31;;;17.08;26.56
72486;BME280;60509;47.308;-122.428;2023-05-25T07:58:49;100550.05;;;16.22;27.32
72486;BME280;60509;47.308;-122.428;2023-05-25T08:01:15;100550.81;;;16.04;27.33
72486;BME280;60509;47.308;-122.428;2023-05-25T08:03:41;100550.42;;;15.86;27.46
72486;BME280;60509;47.308;-122.428;2023-05-25T08:06:07;100547.49;;;17.86;26.03
72486;BME280;60509;47.308;-122.428;2023-05-25T08:08:32;100546.04;;;17.81;25.98
72486;BME280;60509;47.308;-122.428;2023-05-25T08:10:58;100545.15;;;17.29;26.27
72486;BME280;60509;47.308;-122.428;2023-05-25T08:13:25;100543.21;;;17.45;26.16
72486;BME280;60509;47.308;-122.428;2023-05-25T08:15:50;100545.77;;;17.33;26.27
72486;BME280;60509;47.308;-122.428;2023-05-25T08:18:16;100542.91;;;17.68;25.76
72486;BME280;60509;47.308;-122.428;2023-05-25T08:20:42;100545.33;;;16.98;26.29
72486;BME280;60509;47.308;-122.428;2023-05-25T08:23:08;100544.57;;;17.54;26.04
72486;BME280;60509;47.308;-122.428;2023-05-25T08:25:34;100548.48;;;17.25;26.26
72486;BME280;60509;47.308;-122.428;2023-05-25T08:28:00;100550.17;;;17.28;26.18
72486;BME280;60509;47.308;-122.428;2023-05-25T08:30:26;100549.34;;;16.75;26.85
72486;BME280;60509;47.308;-122.428;2023-05-25T08:32:52;100556.48;;;17.57;26.29
72486;BME280;60509;47.308;-122.428;2023-05-25T08:35:18;100557.40;;;16.95;26.64
72486;BME280;60509;47.308;-122.428;2023-05-25T08:37:44;100556.99;;;16.28;27.21
72486;BME280;60509;47.308;-122.428;2023-05-25T08:40:14;100554.23;;;16.51;26.94
72486;BME280;60509;47.308;-122.428;2023-05-25T08:42:35;100553.96;;;16.87;26.59
72486;BME280;60509;47.308;-122.428;2023-05-25T08:45:02;100553.05;;;17.73;26.17
72486;BME280;60509;47.308;-122.428;2023-05-25T08:47:30;100547.97;;;17.35;26.32
72486;BME280;60509;47.308;-122.428;2023-05-25T08:49:54;100549.78;;;17.26;26.31
72486;BME280;60509;47.308;-122.428;2023-05-25T08:52:21;100553.42;;;16.50;26.97
72486;BME280;60509;47.308;-122.428;2023-05-25T08:54:46;100553.09;;;16.39;27.02
72486;BME280;60509;47.308;-122.428;2023-05-25T08:57:16;100549.29;;;16.39;27.02
72486;BME280;60509;47.308;-122.428;2023-05-25T08:59:40;100548.18;;;16.29;27.21
72486;BME280;60509;47.308;-122.428;2023-05-25T09:02:12;100546.22;;;16.38;27.27
72486;BME280;60509;47.308;-122.428;2023-05-25T09:04:29;100543.47;;;15.37;27.73
72486;BME280;60509;47.308;-122.428;2023-05-25T09:06:55;100540.39;;;16.93;26.69
72486;BME280;60509;47.308;-122.428;2023-05-25T09:09:21;100543.84;;;17.85;26.25
72486;BME280;60509;47.308;-122.428;2023-05-25T09:11:47;100544.89;;;16.02;27.41
72486;BME280;60509;47.308;-122.428;2023-05-25T09:14:13;100544.85;;;15.59;27.56
72486;BME280;60509;47.308;-122.428;2023-05-25T09:16:39;100545.05;;;15.96;27.11
72486;BME280;60509;47.308;-122.428;2023-05-25T09:19:04;100539.26;;;16.28;27.36
72486;BME280;60509;47.308;-122.428;2023-05-25T09:21:30;100537.93;;;15.20;27.99
72486;BME280;60509;47.308;-122.428;2023-05-25T09:23:56;100537.45;;;15.73;27.38
72486;BME280;60509;47.308;-122.428;2023-05-25T09:26:22;100535.03;;;17.18;26.69
72486;BME280;60509;47.308;-122.428;2023-05-25T09:28:48;100533.63;;;16.94;26.87
72486;BME280;60509;47.308;-122.428;2023-05-25T09:31:14;100536.37;;;16.43;27.30
72486;BME280;60509;47.308;-122.428;2023-05-25T09:33:40;100538.77;;;15.84;27.89
72486;BME280;60509;47.308;-122.428;2023-05-25T09:36:06;100537.62;;;15.65;27.78
72486;BME280;60509;47.308;-122.428;2023-05-25T09:38:32;100534.05;;;15.75;27.70
72486;BME280;60509;47.308;-122.428;2023-05-25T09:40:57;100529.87;;;15.77;27.49
72486;BME280;60509;47.308;-122.428;2023-05-25T09:43:23;100526.69;;;17.44;26.49
72486;BME280;60509;47.308;-122.428;2023-05-25T09:45:51;100523.45;;;17.43;26.38
72486;BME280;60509;47.308;-122.428;2023-05-25T09:48:15;100522.29;;;17.33;26.54
72486;BME280;60509;47.308;-122.428;2023-05-25T09:50:41;100519.00;;;17.27;26.37
72486;BME280;60509;47.308;-122.428;2023-05-25T09:53:07;100518.43;;;17.24;26.43
72486;BME280;60509;47.308;-122.428;2023-05-25T09:55:33;100518.25;;;16.70;26.83
72486;BME280;60509;47.308;-122.428;2023-05-25T09:57:59;100524.68;;;17.03;26.43
72486;BME280;60509;47.308;-122.428;2023-05-25T10:00:25;100522.19;;;17.18;26.35
72486;BME280;60509;47.308;-122.428;2023-05-25T10:02:51;100519.90;;;17.50;26.36
72486;BME280;60509;47.308;-122.428;2023-05-25T10:05:17;100520.68;;;17.40;26.42
72486;BME280;60509;47.308;-122.428;2023-05-25T10:07:44;100520.48;;;16.27;27.05
72486;BME280;60509;47.308;-122.428;2023-05-25T10:10:09;100522.04;;;16.25;27.38
72486;BME280;60509;47.308;-122.428;2023-05-25T10:12:34;100521.91;;;16.05;27.51
72486;BME280;60509;47.308;-122.428;2023-05-25T10:15:02;100526.01;;;15.79;27.39
72486;BME280;60509;47.308;-122.428;2023-05-25T10:17:29;100527.96;;;15.79;27.48
72486;BME280;60509;47.308;-122.428;2023-05-25T10:19:55;100529.92;;;15.99;27.31
72486;BME280;60509;47.308;-122.428;2023-05-25T10:22:20;100528.00;;;16.01;27.30
72486;BME280;60509;47.308;-122.428;2023-05-25T10:24:52;100528.38;;;16.00;27.21
72486;BME280;60509;47.308;-122.428;2023-05-25T10:27:14;100526.21;;;15.78;27.44
72486;BME280;60509;47.308;-122.428;2023-05-25T10:29:37;100524.28;;;16.97;26.80
72486;BME280;60509;47.308;-122.428;2023-05-25T10:32:03;100521.94;;;16.49;26.98
72486;BME280;60509;47.308;-122.428;2023-05-25T10:34:28;100520.83;;;15.91;27.31
72486;BME280;60509;47.308;-122.428;2023-05-25T10:36:54;100518.92;;;16.35;27.13
72486;BME280;60509;47.308;-122.428;2023-05-25T10:39:21;100521.58;;;16.42;27.18
72486;BME280;60509;47.308;-122.428;2023-05-25T10:41:46;100520.82;;;16.23;27.25
72486;BME280;60509;47.308;-122.428;2023-05-25T10:44:12;100518.66;;;15.77;27.58
72486;BME280;60509;47.308;-122.428;2023-05-25T10:46:38;100517.46;;;15.51;27.83
72486;BME280;60509;47.308;-122.428;2023-05-25T10:49:04;100516.01;;;15.86;27.49
72486;BME280;60509;47.308;-122.428;2023-05-25T10:51:40;100516.47;;;15.43;27.93
72486;BME280;60509;47.308;-122.428;2023-05-25T10:54:00;100515.58;;;15.41;27.98
72486;BME280;60509;47.308;-122.428;2023-05-25T10:56:22;100516.24;;;15.48;27.95
72486;BME280;60509;47.308;-122.428;2023-05-25T10:58:47;100516.92;;;16.00;27.45
72486;BME280;60509;47.308;-122.428;2023-05-25T11:01:15;100512.40;;;16.60;27.12
72486;BME280;60509;47.308;-122.428;2023-05-25T11:03:56;100512.64;;;15.77;27.56
72486;BME280;60509;47.308;-122.428;2023-05-25T11:06:05;100514.59;;;15.70;27.35
72486;BME280;60509;47.308;-122.428;2023-05-25T11:08:48;100509.69;;;17.02;26.66
72486;BME280;60509;47.308;-122.428;2023-05-25T11:10:58;100513.62;;;15.87;27.52
72486;BME280;60509;47.308;-122.428;2023-05-25T11:13:33;100516.21;;;15.78;27.55
72486;BME280;60509;47.308;-122.428;2023-05-25T11:16:15;100511.86;;;16.07;27.24
72486;BME280;60509;47.308;-122.428;2023-05-25T11:18:15;100509.91;;;15.86;27.38
72486;BME280;60509;47.308;-122.428;2023-05-25T11:20:41;100508.07;;;15.98;27.18
72486;BME280;60509;47.308;-122.428;2023-05-25T11:23:26;100507.46;;;16.53;26.97
72486;BME280;60509;47.308;-122.428;2023-05-25T11:25:38;100504.46;;;16.56;26.96
72486;BME280;60509;47.308;-122.428;2023-05-25T11:28:03;100503.16;;;15.02;27.87
72486;BME280;60509;47.308;-122.428;2023-05-25T11:30:27;100502.46;;;15.25;27.91
72486;BME280;60509;47.308;-122.428;2023-05-25T11:32:51;100500.97;;;15.38;27.87
72486;BME280;60509;47.308;-122.428;2023-05-25T11:35:17;100503.37;;;14.71;28.08
72486;BME280;60509;47.308;-122.428;2023-05-25T11:37:49;100503.21;;;14.83;28.14
72486;BME280;60509;47.308;-122.428;2023-05-25T11:40:09;100502.40;;;15.03;28.06
72486;BME280;60509;47.308;-122.428;2023-05-25T11:42:34;100499.97;;;15.23;27.83
72486;BME280;60509;47.308;-122.428;2023-05-25T11:45:02;100496.19;;;16.68;26.81
72486;BME280;60509;47.308;-122.428;2023-05-25T11:47:25;100497.30;;;15.93;27.33
72486;BME280;60509;47.308;-122.428;2023-05-25T11:49:53;100497.86;;;16.25;27.01
72486;BME280;60509;47.308;-122.428;2023-05-25T11:52:18;100493.06;;;15.76;27.37
72486;BME280;60509;47.308;-122.428;2023-05-25T11:54:41;100496.50;;;15.32;27.67
72486;BME280;60509;47.308;-122.428;2023-05-25T11:57:14;100500.45;;;16.01;27.24
72486;BME280;60509;47.308;-122.428;2023-05-25T11:59:32;100500.64;;;15.32;27.64
72486;BME280;60509;47.308;-122.428;2023-05-25T12:01:59;100501.09;;;15.43;27.46
72486;BME280;60509;47.308;-122.428;2023-05-25T12:04:24;100507.82;;;15.14;27.74
72486;BME280;60509;47.308;-122.428;2023-05-25T12:06:50;100505.90;;;15.77;27.38
72486;BME280;60509;47.308;-122.428;2023-05-25T12:09:20;100510.34;;;14.92;27.84
72486;BME280;60509;47.308;-122.428;2023-05-25T12:11:42;100515.79;;;15.15;27.44
72486;BME280;60509;47.308;-122.428;2023-05-25T12:14:07;100520.62;;;15.22;27.56